sensor_id;sensor_type;location;lat;lon;timestamp;temperature;humidity
18268;DHT22;9260;49.998;19.880;2024-02-04T00:04:26;6.30;1.00
18268;DHT22;9260;49.998;19.880;2024-02-04T00:14:31;5.60;1.00
18268;DHT22;9260;49.998;19.880;2024-02-04T00:24:35;6.00;1.00
18268;DHT22;9260;49.998;19.880;2024-02-04T00:34:40;5.70;1.00
18268;DHT22;9260;49.998;19.880;2024-02-04T00:44:43;5.70;1.00
18268;DHT22;9260;49.998;19.880;2024-02-04T00:54:48;5.70;1.00
18268;DHT22;9260;49.998;19.880;2024-02-04T01:04:51;6.40;1.00
18268;DHT22;9260;49.998;19.880;2024-02-04T01:14:56;5.90;1.00
18268;DHT22;9260;49.998;19.880;2024-02-04T01:25:00;5.80;1.00
18268;DHT22;9260;49.998;19.880;2024-02-04T01:35:06;5.60;1.00
18268;DHT22;9260;49.998;19.880;2024-02-04T01:45:12;5.70;1.00
18268;DHT22;9260;49.998;19.880;2024-02-04T01:55:17;5.50;1.00
18268;DHT22;9260;49.998;19.880;2024-02-04T02:05:20;5.60;1.00
18268;DHT22;9260;49.998;19.880;2024-02-04T02:15:25;5.40;1.00
18268;DHT22;9260;49.998;19.880;2024-02-04T02:25:33;5.70;1.00
18268;DHT22;9260;49.998;19.880;2024-02-04T02:35:36;5.10;1.00
18268;DHT22;9260;49.998;19.880;2024-02-04T02:45:42;5.50;1.00
18268;DHT22;9260;49.998;19.880;2024-02-04T02:55:45;5.30;1.00
18268;DHT22;9260;49.998;19.880;2024-02-04T03:05:50;5.40;1.00
18268;DHT22;9260;49.998;19.880;2024-02-04T03:15:54;5.50;1.00
18268;DHT22;9260;49.998;19.880;2024-02-04T03:25:58;5.30;99.90
18268;DHT22;9260;49.998;19.880;2024-02-04T03:36:02;5.00;1.00
18268;DHT22;9260;49.998;19.880;2024-02-04T03:46:07;5.10;1.00
18268;DHT22;9260;49.998;19.880;2024-02-04T03:56:10;5.00;1.00
18268;DHT22;9260;49.998;19.880;2024-02-04T04:06:16;5.60;1.00
18268;DHT22;9260;49.998;19.880;2024-02-04T04:16:20;4.80;1.00
18268;DHT22;9260;49.998;19.880;2024-02-04T04:26:25;5.10;1.00
18268;DHT22;9260;49.998;19.880;2024-02-04T04:36:28;4.70;1.00
18268;DHT22;9260;49.998;19.880;2024-02-04T04:46:33;5.00;1.00
18268;DHT22;9260;49.998;19.880;2024-02-04T04:56:37;4.70;1.00
18268;DHT22;9260;49.998;19.880;2024-02-04T05:06:45;5.50;1.00
18268;DHT22;9260;49.998;19.880;2024-02-04T05:16:48;4.70;1.00
18268;DHT22;9260;49.998;19.880;2024-02-04T05:26:53;5.00;1.00
18268;DHT22;9260;49.998;19.880;2024-02-04T05:36:56;4.80;1.00
18268;DHT22;9260;49.998;19.880;2024-02-04T05:47:01;4.70;1.00
18268;DHT22;9260;49.998;19.880;2024-02-04T05:57:04;5.00;1.00
18268;DHT22;9260;49.998;19.880;2024-02-04T06:07:09;4.50;1.00
18268;DHT22;9260;49.998;19.880;2024-02-04T06:17:13;4.60;1.00
18268;DHT22;9260;49.998;19.880;2024-02-04T06:27:17;4.70;1.00
18268;DHT22;9260;49.998;19.880;2024-02-04T06:37:21;4.60;1.00
18268;DHT22;9260;49.998;19.880;2024-02-04T06:47:25;4.50;99.90
18268;DHT22;9260;49.998;19.880;2024-02-04T06:57:29;4.70;1.00
18268;DHT22;9260;49.998;19.880;2024-02-04T07:07:33;5.60;1.00
18268;DHT22;9260;49.998;19.880;2024-02-04T07:17:37;5.00;1.00
18268;DHT22;9260;49.998;19.880;2024-02-04T07:27:41;5.20;1.00
18268;DHT22;9260;49.998;19.880;2024-02-04T07:37:47;6.20;1.00
18268;DHT22;9260;49.998;19.880;2024-02-04T07:47:51;5.70;1.00
18268;DHT22;9260;49.998;19.880;2024-02-04T07:57:55;6.00;1.00
18268;DHT22;9260;49.998;19.880;2024-02-04T08:07:59;5.10;1.00
18268;DHT22;9260;49.998;19.880;2024-02-04T08:18:03;5.90;1.00
18268;DHT22;9260;49.998;19.880;2024-02-04T08:28:10;6.10;1.00
18268;DHT22;9260;49.998;19.880;2024-02-04T08:38:14;6.10;1.00
18268;DHT22;9260;49.998;19.880;2024-02-04T08:48:20;6.20;1.00
18268;DHT22;9260;49.998;19.880;2024-02-04T08:58:23;5.60;1.00
18268;DHT22;9260;49.998;19.880;2024-02-04T09:08:28;6.30;1.00
18268;DHT22;9260;49.998;19.880;2024-02-04T09:18:31;6.30;1.00
18268;DHT22;9260;49.998;19.880;2024-02-04T09:28:36;6.60;1.00
18268;DHT22;9260;49.998;19.880;2024-02-04T09:38:40;6.70;1.00
18268;DHT22;9260;49.998;19.880;2024-02-04T09:48:44;6.10;1.00
18268;DHT22;9260;49.998;19.880;2024-02-04T09:58:48;7.50;1.00
18268;DHT22;9260;49.998;19.880;2024-02-04T10:08:56;12.70;1.00
18268;DHT22;9260;49.998;19.880;2024-02-04T10:19:00;9.00;1.00
18268;DHT22;9260;49.998;19.880;2024-02-04T10:29:06;8.10;1.00
18268;DHT22;9260;49.998;19.880;2024-02-04T10:39:09;8.20;1.00
18268;DHT22;9260;49.998;19.880;2024-02-04T10:49:14;8.00;1.00
18268;DHT22;9260;49.998;19.880;2024-02-04T10:59:18;9.10;1.00
18268;DHT22;9260;49.998;19.880;2024-02-04T11:09:25;7.80;1.00
18268;DHT22;9260;49.998;19.880;2024-02-04T11:19:32;9.20;1.00
18268;DHT22;9260;49.998;19.880;2024-02-04T11:29:42;11.20;1.00
18268;DHT22;9260;49.998;19.880;2024-02-04T11:39:48;13.70;1.00
18268;DHT22;9260;49.998;19.880;2024-02-04T11:49:55;17.00;1.00
18268;DHT22;9260;49.998;19.880;2024-02-04T11:59:59;18.00;1.00
18268;DHT22;9260;49.998;19.880;2024-02-04T12:10:07;15.80;1.00
18268;DHT22;9260;49.998;19.880;2024-02-04T12:20:10;11.40;1.00
18268;DHT22;9260;49.998;19.880;2024-02-04T12:30:15;9.00;1.00
18268;DHT22;9260;49.998;19.880;2024-02-04T12:40:22;8.30;1.00
18268;DHT22;9260;49.998;19.880;2024-02-04T12:50:27;7.80;1.00
18268;DHT22;9260;49.998;19.880;2024-02-04T13:00:30;7.50;1.00
18268;DHT22;9260;49.998;19.880;2024-02-04T13:10:36;7.20;1.00
18268;DHT22;9260;49.998;19.880;2024-02-04T13:20:39;6.80;1.00
18268;DHT22;9260;49.998;19.880;2024-02-04T13:30:46;6.70;1.00
18268;DHT22;9260;49.998;19.880;2024-02-04T13:40:50;6.80;1.00
18268;DHT22;9260;49.998;19.880;2024-02-04T13:50:57;6.50;1.00
18268;DHT22;9260;49.998;19.880;2024-02-04T14:01:00;7.40;1.00
18268;DHT22;9260;49.998;19.880;2024-02-04T14:11:06;6.20;1.00
18268;DHT22;9260;49.998;19.880;2024-02-04T14:21:09;6.00;1.00
18268;DHT22;9260;49.998;19.880;2024-02-04T14:31:17;6.20;1.00
18268;DHT22;9260;49.998;19.880;2024-02-04T14:41:20;6.10;1.00
18268;DHT22;9260;49.998;19.880;2024-02-04T14:51:25;6.10;1.00
18268;DHT22;9260;49.998;19.880;2024-02-04T15:01:28;5.80;1.00
18268;DHT22;9260;49.998;19.880;2024-02-04T15:11:34;5.40;1.00
18268;DHT22;9260;49.998;19.880;2024-02-04T15:21:38;5.60;1.00
18268;DHT22;9260;49.998;19.880;2024-02-04T15:31:44;5.30;1.00
18268;DHT22;9260;49.998;19.880;2024-02-04T15:41:51;5.30;1.00
18268;DHT22;9260;49.998;19.880;2024-02-04T15:51:56;4.80;1.00
18268;DHT22;9260;49.998;19.880;2024-02-04T16:02:00;5.20;1.00
18268;DHT22;9260;49.998;19.880;2024-02-04T16:12:07;5.00;1.00
18268;DHT22;9260;49.998;19.880;2024-02-04T16:22:13;5.10;1.00
18268;DHT22;9260;49.998;19.880;2024-02-04T16:32:21;5.00;99.90
18268;DHT22;9260;49.998;19.880;2024-02-04T16:42:25;5.20;1.00
18268;DHT22;9260;49.998;19.880;2024-02-04T16:52:35;5.00;1.00
18268;DHT22;9260;49.998;19.880;2024-02-04T17:02:40;5.10;99.90
18268;DHT22;9260;49.998;19.880;2024-02-04T17:12:45;5.10;1.00
18268;DHT22;9260;49.998;19.880;2024-02-04T17:22:49;5.40;1.00
18268;DHT22;9260;49.998;19.880;2024-02-04T17:32:54;4.90;1.00
18268;DHT22;9260;49.998;19.880;2024-02-04T17:42:58;4.90;1.00
18268;DHT22;9260;49.998;19.880;2024-02-04T17:53:04;5.00;99.90
18268;DHT22;9260;49.998;19.880;2024-02-04T18:03:08;5.10;99.90
18268;DHT22;9260;49.998;19.880;2024-02-04T18:13:13;5.20;99.90
18268;DHT22;9260;49.998;19.880;2024-02-04T18:23:17;5.60;99.90
18268;DHT22;9260;49.998;19.880;2024-02-04T18:33:22;5.70;99.90
18268;DHT22;9260;49.998;19.880;2024-02-04T18:43:26;5.60;99.90
18268;DHT22;9260;49.998;19.880;2024-02-04T18:53:30;5.60;99.90
18268;DHT22;9260;49.998;19.880;2024-02-04T19:03:34;5.50;1.00
18268;DHT22;9260;49.998;19.880;2024-02-04T19:13:39;5.50;1.00
18268;DHT22;9260;49.998;19.880;2024-02-04T19:23:42;6.70;1.00
18268;DHT22;9260;49.998;19.880;2024-02-04T19:33:47;5.50;1.00
18268;DHT22;9260;49.998;19.880;2024-02-04T19:43:51;5.70;1.00
18268;DHT22;9260;49.998;19.880;2024-02-04T19:53:56;5.40;1.00
18268;DHT22;9260;49.998;19.880;2024-02-04T20:04:00;5.50;1.00
18268;DHT22;9260;49.998;19.880;2024-02-04T20:14:04;5.70;1.00
18268;DHT22;9260;49.998;19.880;2024-02-04T20:24:08;5.90;1.00
18268;DHT22;9260;49.998;19.880;2024-02-04T20:34:13;5.60;1.00
18268;DHT22;9260;49.998;19.880;2024-02-04T20:44:16;5.60;1.00
18268;DHT22;9260;49.998;19.880;2024-02-04T20:54:22;5.70;1.00
18268;DHT22;9260;49.998;19.880;2024-02-04T21:04:27;5.50;1.00
18268;DHT22;9260;49.998;19.880;2024-02-04T21:14:32;5.60;1.00
18268;DHT22;9260;49.998;19.880;2024-02-04T21:24:35;5.90;1.00
18268;DHT22;9260;49.998;19.880;2024-02-04T21:34:40;5.50;1.00
18268;DHT22;9260;49.998;19.880;2024-02-04T21:44:43;5.40;1.00
18268;DHT22;9260;49.998;19.880;2024-02-04T21:54:48;5.30;1.00
18268;DHT22;9260;49.998;19.880;2024-02-04T22:04:52;5.20;1.00
18268;DHT22;9260;49.998;19.880;2024-02-04T22:14:57;4.80;1.00
18268;DHT22;9260;49.998;19.880;2024-02-04T22:25:02;4.50;1.00
18268;DHT22;9260;49.998;19.880;2024-02-04T22:35:08;4.50;1.00
18268;DHT22;9260;49.998;19.880;2024-02-04T22:45:12;4.20;1.00
18268;DHT22;9260;49.998;19.880;2024-02-04T22:55:16;4.00;1.00
18268;DHT22;9260;49.998;19.880;2024-02-04T23:05:19;4.30;1.00
18268;DHT22;9260;49.998;19.880;2024-02-04T23:15:24;3.80;1.00
18268;DHT22;9260;49.998;19.880;2024-02-04T23:25:27;4.00;1.00
18268;DHT22;9260;49.998;19.880;2024-02-04T23:35:32;3.50;1.00
18268;DHT22;9260;49.998;19.880;2024-02-04T23:45:35;3.50;1.00
18268;DHT22;9260;49.998;19.880;2024-02-04T23:55:40;3.40;1.00
